Latest Weather Observations for Dunalley

IDT60801

Issued at 9:02 am EST Tuesday 25 April 2017 (issued every 30 minutes, with the page automatically refreshed every 10 minutes)

About weather observations | Map of weather stations | Latest weather observations for TAS | Other Formats
Station Details ID: 094254 Name: DUNALLEY (STROUD POINT) Lat: -42.90 Lon: 147.79 Height: 12.43 m
Data from the previous 72 hours. | See also: Recent months at Dunalley
Date/Time
EST
Temp
°C
App
Temp
°C
Dew
Point
°C
Rel
Hum
%
Delta-T
°C
Wind Press
QNH
hPa
Press
MSL
hPa
Rain since
9am
mm
Dir  Spd
km/h
Gust
km/h
Spd
kts
Gust
kts
25/09:00am 13.9 14.7 12.5 91 0.8 CALM 0 0 0 0 1005.6 1005.6 0.8
25/08:30am 13.9 14.7 12.5 91 0.8 CALM 0 0 0 0 1005.8 1005.8 0.8
25/08:00am 13.5 14.2 12.1 91 0.8 CALM 0 0 0 0 1005.9 1005.9 0.8
25/07:30am 13.3 13.9 11.9 91 0.7 CALM 0 0 0 0 1005.9 1005.9 0.8
25/07:00am 13.2 13.8 11.9 92 0.7 CALM 0 0 0 0 1006.0 1006.0 0.8
25/06:30am 13.3 13.9 11.9 91 0.7 CALM 0 0 0 0 1005.8 1005.8 0.8
25/06:00am 13.5 14.2 12.1 91 0.8 CALM 0 0 0 0 1006.3 1006.3 0.8
25/05:30am 13.4 14.0 11.8 90 0.9 CALM 0 0 0 0 1006.6 1006.6 0.6
25/05:00am 13.5 14.0 11.7 89 1.0 CALM 0 0 0 0 1006.9 1006.9 0.6
25/04:30am 13.4 13.9 11.5 88 1.0 CALM 0 0 0 0 1007.1 1007.1 0.2
25/04:00am 13.6 13.4 11.7 88 1.0 NE 4 6 2 3 1007.4 1007.4 0.2
25/03:30am 13.5 14.0 11.7 89 1.0 CALM 0 0 0 0 1007.6 1007.6 0.2
25/03:00am 13.6 14.2 12.0 90 0.9 CALM 0 0 0 0 1008.2 1008.2 0.2
25/02:30am 13.5 13.0 11.9 90 0.9 NE 6 7 3 4 1008.3 1008.3 0.2
25/02:00am 13.7 13.3 12.3 91 0.8 NE 6 7 3 4 1008.9 1008.9 0.2
25/01:30am 13.4 12.8 11.8 90 0.9 NE 6 7 3 4 1009.2 1009.2 0.2
25/01:00am 14.0 14.3 12.2 89 1.0 NE 2 4 1 2 1009.6 1009.6 0.2
25/12:30am 13.6 13.0 11.7 88 1.0 NE 6 6 3 3 1010.4 1010.4 0.2
25/12:00am 14.3 13.8 12.0 86 1.2 NE 6 7 3 4 1010.5 1010.5 0.2
 
Date/Time
EST
Temp
°C
App
Temp
°C
Dew
Point
°C
Rel
Hum
%
Delta-T
°C
Wind Press
QNH
hPa
Press
MSL
hPa
Rain since
9am
mm
Dir  Spd
km/h
Gust
km/h
Spd
kts
Gust
kts
24/11:30pm 14.6 15.4 12.5 87 1.1 CALM 0 4 0 2 1011.1 1011.1 0.2
24/11:00pm 14.6 14.2 12.5 87 1.1 NE 6 7 3 4 1011.6 1011.6 0.2
24/10:30pm 14.9 15.1 13.1 89 1.0 NE 4 6 2 3 1011.8 1011.8 0.2
24/10:00pm 14.9 14.8 13.3 90 0.9 NE 6 9 3 5 1012.2 1012.2 0.2
24/09:30pm 14.4 14.5 12.8 90 0.9 NE 4 6 2 3 1012.4 1012.4 0.0
24/09:00pm 14.5 14.3 12.9 90 0.9 NE 6 7 3 4 1012.4 1012.4 0.0
24/08:30pm 14.8 15.0 13.0 89 1.0 NE 4 7 2 4 1012.8 1012.8 0.0
24/08:00pm 15.6 14.7 13.8 89 1.0 NE 11 15 6 8 1012.9 1012.9 0.0
24/07:30pm 15.6 15.0 13.6 88 1.1 NE 9 11 5 6 1013.2 1013.2 0.0
24/07:00pm 15.9 14.6 13.7 87 1.2 NE 13 17 7 9 1013.1 1013.1 0.0
24/06:30pm 15.8 14.9 13.6 87 1.2 NE 11 15 6 8 1013.5 1013.5 0.0
24/06:00pm 15.9 14.2 13.6 86 1.3 ENE 15 19 8 10 1013.5 1013.5 0.0
24/05:30pm 16.2 14.8 13.3 83 1.6 NE 13 15 7 8 1013.6 1013.6 0.0
24/05:00pm 16.4 13.7 12.9 80 1.9 NE 19 24 10 13 1013.6 1013.6 0.0
24/04:30pm 16.4 13.5 12.8 79 2.0 NNE 20 30 11 16 1013.5 1013.5 0.0
24/04:00pm 16.6 13.0 12.9 79 2.1 NNE 24 32 13 17 1013.8 1013.8 0.0
24/03:30pm 17.1 13.9 13.0 77 2.3 NE 22 28 12 15 1014.0 1014.0 0.0
24/03:00pm 17.4 13.9 13.3 77 2.3 NE 24 28 13 15 1014.3 1014.3 0.0
24/02:30pm 17.1 13.2 13.2 78 2.2 NE 26 32 14 17 1014.9 1014.9 0.0
24/02:00pm 17.0 12.5 12.7 76 2.4 NE 28 35 15 19 1015.3 1015.3 0.0
24/01:30pm 17.3 13.2 12.8 75 2.5 NE 26 32 14 17 1015.9 1015.9 0.0
24/01:00pm 17.4 14.1 12.7 74 2.6 NE 22 30 12 16 1016.4 1016.4 0.0
24/12:30pm 17.2 13.5 12.7 75 2.5 NE 24 32 13 17 1017.0 1017.0 0.0
24/12:00pm 16.6 13.2 12.6 77 2.2 NE 22 28 12 15 1017.7 1017.7 0.0
24/11:30am 16.3 11.8 12.5 78 2.1 NE 28 33 15 18 1018.1 1018.1 0.0
24/11:00am 15.8 12.5 12.9 83 1.6 ENE 22 30 12 16 1018.8 1018.8 0.0
24/10:30am 15.4 12.1 12.7 84 1.5 NE 22 30 12 16 1019.3 1019.3 0.0
24/10:00am 15.2 11.6 12.9 86 1.3 NE 24 30 13 16 1019.6 1019.6 0.0
24/09:30am 15.1 11.6 13.3 89 1.0 NE 24 30 13 16 1019.7 1019.7 0.0
24/09:00am 14.5 10.9 12.9 90 0.9 NE 24 30 13 16 1020.1 1020.1 0.4
24/08:30am 14.3 11.6 12.9 91 0.8 SSE 19 24 10 13 1020.6 1020.6 0.4
24/08:00am 13.8 11.0 12.5 92 0.7 SSE 19 24 10 13 1020.6 1020.6 0.4
24/07:30am 13.5 12.5 12.2 92 0.7 SSE 9 15 5 8 1021.1 1021.1 0.4
24/07:00am 13.4 13.3 12.1 92 0.7 SSE 4 7 2 4 1021.3 1021.3 0.4
24/06:30am 13.4 12.9 12.1 92 0.7 SSE 6 7 3 4 1021.5 1021.5 0.2
24/06:00am 13.4 12.3 12.0 91 0.7 SSE 9 11 5 6 1021.6 1021.6 0.2
24/05:30am 13.2 12.6 11.6 90 0.9 SSE 6 7 3 4 1021.8 1021.8 0.0
24/05:00am 13.0 12.2 11.1 88 1.0 SSE 6 7 3 4 1022.0 1022.0 0.0
24/04:30am 13.1 12.6 10.8 86 1.2 SSE 4 6 2 3 1022.0 1022.0 0.0
24/04:00am 13.1 12.9 10.5 84 1.3 SSE 2 6 1 3 1022.2 1022.2 0.0
24/03:30am 13.1 13.3 10.5 84 1.4 CALM 0 0 0 0 1022.3 1022.3 0.0
24/03:00am 13.2 13.4 10.6 84 1.3 CALM 0 0 0 0 1022.7 1022.7 0.0
24/02:30am 13.3 12.4 10.8 85 1.3 SSE 6 7 3 4 1023.1 1023.1 0.0
24/02:00am 12.9 13.1 10.6 86 1.2 CALM 0 2 0 1 1023.5 1023.5 0.0
24/01:30am 12.9 12.4 10.6 86 1.2 SSE 4 6 2 3 1023.9 1023.9 0.0
24/01:00am 12.7 12.2 10.6 87 1.1 SSE 4 6 2 3 1024.0 1024.0 0.0
24/12:30am 12.6 12.1 10.7 88 1.0 SSE 4 6 2 3 1024.3 1024.3 0.0
24/12:00am 12.4 11.5 10.5 88 1.0 SSE 6 7 3 4 1024.5 1024.5 0.0
 
Date/Time
EST
Temp
°C
App
Temp
°C
Dew
Point
°C
Rel
Hum
%
Delta-T
°C
Wind Press
QNH
hPa
Press
MSL
hPa
Rain since
9am
mm
Dir  Spd
km/h
Gust
km/h
Spd
kts
Gust
kts
23/11:30pm 12.3 11.7 10.4 88 1.0 SSE 4 6 2 3 1024.8 1024.8 0.0
23/11:00pm 12.5 11.3 10.4 87 1.1 SSE 7 9 4 5 1025.0 1025.0 0.0
23/10:30pm 12.7 12.0 10.2 85 1.3 SSE 4 6 2 3 1025.4 1025.4 0.0
23/10:00pm 13.0 12.0 10.2 83 1.4 SSE 6 6 3 3 1025.6 1025.6 0.0
23/09:30pm 13.1 12.7 9.9 81 1.6 SSE 2 4 1 2 1025.6 1025.6 0.0
23/09:00pm 13.4 13.5 10.0 80 1.7 CALM 0 0 0 0 1025.6 1025.6 0.0
23/08:30pm 13.4 13.1 10.0 80 1.8 SSE 2 6 1 3 1025.5 1025.5 0.0
23/08:00pm 13.8 12.8 10.4 80 1.8 SSE 6 6 3 3 1025.5 1025.5 0.0
23/07:30pm 13.5 13.1 9.9 79 1.9 SSE 2 4 1 2 1025.3 1025.3 0.0
23/07:00pm 13.9 12.8 10.1 78 2.0 SSE 6 9 3 5 1025.2 1025.2 0.0
23/06:30pm 14.3 13.2 10.1 76 2.2 SSE 6 7 3 4 1025.1 1025.1 0.0
23/06:00pm 14.4 13.2 10.2 76 2.2 SSE 7 9 4 5 1025.1 1025.1 0.0
23/05:30pm 14.6 13.5 10.0 74 2.4 SSE 6 7 3 4 1024.9 1024.9 0.0
23/05:00pm 14.7 14.0 9.9 73 2.5 SSE 4 6 2 3 1025.0 1025.0 0.0
23/04:30pm 14.9 14.6 10.1 73 2.5 SSE 2 4 1 2 1024.9 1024.9 0.0
23/04:00pm 14.9 14.2 9.9 72 2.6 SSE 4 6 2 3 1025.1 1025.1 0.0
23/03:30pm 15.0 13.9 10.0 72 2.6 SSE 6 7 3 4 1024.9 1024.9 0.0
23/03:00pm 14.9 14.2 9.9 72 2.6 SSE 4 4 2 2 1024.8 1024.8 0.0
23/02:30pm 14.9 13.8 9.9 72 2.6 SSE 6 7 3 4 1025.1 1025.1 0.0
23/02:00pm 14.9 13.6 9.9 72 2.6 SSE 7 9 4 5 1025.0 1025.0 0.0
23/01:30pm 15.0 13.9 10.0 72 2.6 SSE 6 6 3 3 1025.2 1025.2 0.0
23/01:00pm 15.1 14.0 10.1 72 2.6 SSE 6 7 3 4 1025.3 1025.3 0.0
23/12:30pm 15.0 13.9 10.0 72 2.6 SSE 6 7 3 4 1025.4 1025.4 0.0
23/12:00pm 14.8 13.7 9.8 72 2.6 SSE 6 7 3 4 1025.8 1025.8 0.0
23/11:30am 15.1 14.1 10.3 73 2.5 SSE 6 9 3 5 1026.0 1026.0 0.0
23/11:00am 15.0 13.7 9.8 71 2.7 SSE 7 9 4 5 1026.4 1026.4 0.0
23/10:30am 14.9 13.7 9.7 71 2.7 SSE 6 7 3 4 1026.4 1026.4 0.0
23/10:00am 15.0 13.9 10.0 72 2.6 SSE 6 9 3 5 1026.3 1026.3 0.0
23/09:30am 14.5 13.0 10.5 77 2.1 SSE 9 13 5 7 1026.3 1026.3 0.0
23/09:00am 14.1 12.3 10.7 80 1.8 SSE 11 13 6 7 1026.5 1026.5 0.0
23/08:30am 13.9 11.2 10.5 80 1.8 SSE 15 19 8 10 1026.4 1026.4 0.0
23/08:00am 14.1 11.8 10.5 79 1.9 S 13 17 7 9 1026.1 1026.1 0.0
23/07:30am 14.1 11.4 10.3 78 2.0 S 15 19 8 10 1025.8 1025.8 0.0
23/07:00am 14.1 12.2 10.5 79 1.9 S 11 17 6 9 1025.5 1025.5 0.0
23/06:30am 13.6 11.9 10.0 79 1.9 S 9 15 5 8 1025.4 1025.4 0.0
23/06:00am 13.8 11.9 10.4 80 1.8 S 11 15 6 8 1025.3 1025.3 0.0
23/05:30am 13.5 10.6 11.0 85 1.3 S 17 24 9 13 1025.0 1025.0 0.0
23/05:00am 13.4 12.2 11.6 89 1.0 SSE 9 13 5 7 1024.9 1024.9 0.0
23/04:30am 13.6 11.7 11.8 89 1.0 SSE 13 15 7 8 1024.4 1024.4 0.0
23/04:00am 13.9 11.3 11.9 88 1.1 S 17 22 9 12 1024.3 1024.3 0.0
23/03:30am 13.9 10.9 11.9 88 1.1 SSW 19 20 10 11 1024.3 1024.3 0.0
23/03:00am 14.1 10.9 12.0 87 1.1 SSW 20 24 11 13 1024.3 1024.3 0.0
23/02:30am 14.2 11.6 12.1 87 1.1 SSW 17 20 9 11 1024.3 1024.3 0.0
23/02:00am 14.3 11.2 12.2 87 1.1 S 20 24 11 13 1024.4 1024.4 0.0
23/01:30am 14.4 11.0 12.6 89 1.0 S 22 26 12 14 1024.3 1024.3 0.0
23/01:00am 14.5 12.2 13.0 91 0.8 SSW 17 20 9 11 1024.1 1024.1 0.0
23/12:30am 14.6 12.7 13.1 91 0.8 SSW 15 17 8 9 1024.0 1024.0 0.0
23/12:00am 15.0 13.6 13.5 91 0.8 SW 13 13 7 7 1024.1 1024.1 0.0
 
Date/Time
EST
Temp
°C
App
Temp
°C
Dew
Point
°C
Rel
Hum
%
Delta-T
°C
Wind Press
QNH
hPa
Press
MSL
hPa
Rain since
9am
mm
Dir  Spd
km/h
Gust
km/h
Spd
kts
Gust
kts
22/11:30pm 15.1 14.5 13.5 90 0.9 SW 9 11 5 6 1024.1 1024.1 0.0
22/11:00pm 15.5 14.6 13.7 89 1.0 SW 11 13 6 7 1024.1 1024.1 0.0
22/10:30pm 15.6 15.7 13.8 89 1.0 SW 6 7 3 4 1024.1 1024.1 0.0
22/10:00pm 15.6 15.7 13.8 89 1.0 SW 6 7 3 4 1024.1 1024.1 0.0
22/09:30pm 15.5 16.7 13.7 89 1.0 CALM 0 0 0 0 1024.0 1024.0 0.0
22/09:00pm 15.5 15.9 13.7 89 1.0 SW 4 4 2 2 1023.9 1023.9 0.0
22/08:30pm 15.5 16.3 13.7 89 1.0 SW 2 4 1 2 1023.7 1023.7 0.0
22/08:00pm 15.6 15.7 14.0 90 0.9 SW 6 6 3 3 1023.6 1023.6 0.0
22/07:30pm 15.7 15.7 14.1 90 0.9 SW 7 7 4 4 1023.4 1023.4 0.0
22/07:00pm 15.7 15.3 14.1 90 0.9 SW 9 11 5 6 1023.1 1023.1 0.0
22/06:30pm 15.7 14.2 14.1 90 0.9 SW 15 19 8 10 1022.9 1022.9 0.0
22/06:00pm 15.8 14.3 14.2 90 0.9 SW 15 19 8 10 1022.6 1022.6 0.0
22/05:30pm 15.9 15.9 14.1 89 1.0 SSW 7 9 4 5 1022.6 1022.6 0.0
22/05:00pm 16.1 16.3 14.1 88 1.1 SSW 6 7 3 4 1022.2 1022.2 0.0
22/04:30pm 16.2 16.2 14.2 88 1.1 SSW 7 7 4 4 1022.1 1022.1 0.0
22/04:00pm 16.3 16.3 14.1 87 1.2 SSW 7 7 4 4 1021.9 1021.9 0.0
22/03:30pm 16.4 15.2 14.1 86 1.3 SSW 13 15 7 8 1021.8 1021.8 0.0
22/03:00pm 16.5 15.3 14.0 85 1.4 SSW 13 15 7 8 1021.7 1021.7 0.0
22/02:30pm 16.6 15.8 13.9 84 1.5 SSW 11 15 6 8 1021.5 1021.5 0.0
22/02:00pm 16.7 15.4 13.8 83 1.6 SSW 13 15 7 8 1021.5 1021.5 0.0
22/01:30pm 16.6 14.2 13.7 83 1.6 SW 19 24 10 13 1021.4 1021.4 0.0
22/01:00pm 16.9 15.7 14.0 83 1.6 SSW 13 19 7 10 1021.5 1021.5 0.0
22/12:30pm 17.4 14.8 13.7 79 2.1 ENE 20 22 11 12 1021.5 1021.5 0.0
22/12:00pm 17.4 15.4 13.9 80 2.0 ENE 17 20 9 11 1021.7 1021.7 0.0
22/11:30am 17.8 16.6 13.9 78 2.2 ENE 13 17 7 9 1021.8 1021.8 0.0
22/11:00am 17.6 16.0 13.9 79 2.1 ENE 15 19 8 10 1021.8 1021.8 0.0
22/10:30am 18.4 18.9 13.9 75 2.6 NE 4 9 2 5 1021.7 1021.7 0.0
22/10:00am 18.8 20.0 13.9 73 2.8 CALM 0 4 0 2 1021.7 1021.7 0.0
22/09:30am 18.4 18.9 13.9 75 2.6 NE 4 6 2 3 1021.6 1021.6 0.0

Other Formats:

Comma delimited format used in spreadsheet applications
http://www.bom.gov.au/fwo/IDT60801/IDT60801.94951.axf

JavaScript Object Notation format (JSON) in row-major order
http://www.bom.gov.au/fwo/IDT60801/IDT60801.94951.json